Time;durP1;ratioP1;P1;durP2;ratioP2;P2;SDS_P1;SDS_P2;PMS_P1;PMS_P2;Temp;Humidity;BMP_temperature;BMP_pressure;BME280_temperature;BME280_humidity;BME280_pressure;Samples;Min_cycle;Max_cycle;Signal;HPM_P1;HPM_P2
2022/03/20 00:00:54;;;;;;;13.00;6.00;;;;;;;0.13;40.95;102289.63;5074710;28;20052;-79
2022/03/20 00:03:24;;;;;;;12.25;5.95;;;;;;;0.05;40.78;102282.94;5075571;28;20056;-79
2022/03/20 00:05:52;;;;;;;11.57;5.68;;;;;;;0.04;41.14;102272.50;5075712;28;20052;-78
2022/03/20 00:08:19;;;;;;;14.48;6.10;;;;;;;0.13;41.09;102281.91;5075046;28;20061;-80
2022/03/20 00:14:21;;;;;;;12.63;6.35;;;;;;;0.12;41.44;102281.78;5076943;28;20114;-79
2022/03/20 00:16:48;;;;;;;13.80;5.88;;;;;;;0.02;41.15;102256.06;5079635;28;20067;-79
2022/03/20 00:19:15;;;;;;;12.10;5.20;;;;;;;0.13;41.32;102271.63;5097631;28;20048;-79
2022/03/20 00:21:42;;;;;;;14.50;6.18;;;;;;;0.05;41.40;102267.50;5097080;28;20036;-79
2022/03/20 00:24:09;;;;;;;15.98;5.95;;;;;;;0.10;41.21;102273.03;5075117;28;20135;-78
2022/03/20 00:26:39;;;;;;;15.45;5.80;;;;;;;0.14;41.66;102275.97;5073913;28;20125;-78
2022/03/20 00:29:06;;;;;;;12.25;5.95;;;;;;;0.12;41.27;102279.19;5074999;28;20351;-78
2022/03/20 00:31:34;;;;;;;15.15;6.38;;;;;;;0.14;41.83;102272.53;5075018;28;20067;-79
2022/03/20 00:34:01;;;;;;;15.68;6.25;;;;;;;0.08;41.46;102254.00;5074821;28;20052;-78
2022/03/20 00:36:28;;;;;;;17.50;7.20;;;;;;;0.06;41.95;102259.00;5074925;28;20060;-79
2022/03/20 00:38:55;;;;;;;15.80;6.82;;;;;;;0.08;41.90;102277.13;5074589;28;20084;-78
2022/03/20 00:41:23;;;;;;;13.88;5.95;;;;;;;0.04;42.24;102262.22;5075344;28;20056;-78
2022/03/20 00:43:51;;;;;;;14.55;6.68;;;;;;;0.01;42.26;102257.75;5075141;28;20079;-79
2022/03/20 00:46:17;;;;;;;16.48;5.97;;;;;;;-0.02;42.15;102268.66;5074724;28;20052;-80
2022/03/20 00:48:44;;;;;;;12.75;5.97;;;;;;;-0.02;42.13;102255.81;5073896;28;20044;-77
2022/03/20 00:51:13;;;;;;;11.48;5.13;;;;;;;-0.02;42.47;102254.94;5074619;28;20526;-79
2022/03/20 00:53:41;;;;;;;13.43;6.32;;;;;;;-0.18;42.22;102232.16;5074985;28;20068;-79
2022/03/20 00:56:07;;;;;;;13.40;5.78;;;;;;;-0.15;42.50;102254.63;5074574;28;20048;-79
2022/03/20 00:58:34;;;;;;;14.23;6.38;;;;;;;-0.36;42.51;102198.13;5074427;28;20056;-80
2022/03/20 01:01:04;;;;;;;13.10;5.75;;;;;;;-0.32;42.43;102210.47;5075009;28;20055;-80
2022/03/20 01:03:31;;;;;;;17.08;6.70;;;;;;;-0.12;42.90;102249.78;5077975;28;20049;-81
2022/03/20 01:05:58;;;;;;;12.68;6.70;;;;;;;-0.21;42.82;102222.53;5075571;28;20048;-79
2022/03/20 01:08:25;;;;;;;20.67;7.00;;;;;;;-0.24;42.79;102222.28;5073070;28;20393;-79
2022/03/20 01:10:52;;;;;;;13.30;6.40;;;;;;;-0.14;42.67;102235.91;5073190;28;20056;-80
2022/03/20 01:13:20;;;;;;;13.65;6.05;;;;;;;-0.21;43.29;102231.91;5074168;28;20482;-80
2022/03/20 01:15:46;;;;;;;17.48;6.55;;;;;;;-0.17;43.04;102251.97;5074132;28;20051;-80
2022/03/20 01:18:13;;;;;;;15.48;6.13;;;;;;;-0.19;43.37;102255.13;5072694;28;20143;-80
2022/03/20 01:20:40;;;;;;;16.75;6.65;;;;;;;-0.42;43.15;102195.03;5072880;28;20057;-80
2022/03/20 01:23:07;;;;;;;16.08;6.65;;;;;;;-0.33;43.61;102225.72;5073942;28;20060;-80
2022/03/20 01:25:34;;;;;;;15.15;6.53;;;;;;;-0.18;43.66;102256.97;5075491;28;20067;-82
2022/03/20 01:28:02;;;;;;;18.58;6.85;;;;;;;-0.18;43.69;102244.13;5087266;28;20046;-81
2022/03/20 01:30:29;;;;;;;13.57;6.40;;;;;;;-0.22;44.11;102246.41;5082808;28;20048;-81
2022/03/20 01:32:56;;;;;;;13.98;6.57;;;;;;;-0.59;44.16;102187.56;5073683;28;20059;-81
2022/03/20 01:35:23;;;;;;;15.00;6.82;;;;;;;-0.42;44.22;102221.59;5073659;28;20147;-81
2022/03/20 01:37:50;;;;;;;15.10;6.57;;;;;;;-0.33;44.04;102236.91;5072483;28;20040;-79
2022/03/20 01:40:17;;;;;;;17.10;7.10;;;;;;;-0.31;44.41;102250.78;5073403;28;20052;-81
2022/03/20 01:42:44;;;;;;;16.45;6.70;;;;;;;-0.43;44.55;102239.44;5073604;28;20590;-81
2022/03/20 01:45:20;;;;;;;15.75;7.80;;;;;;;-0.38;44.78;102243.31;5073609;28;20078;-80
2022/03/20 01:47:49;;;;;;;17.80;7.63;;;;;;;-0.64;44.84;102202.59;5073406;28;20524;-81
2022/03/20 01:50:19;;;;;;;15.18;6.28;;;;;;;-0.55;45.06;102213.63;5072308;28;20118;-80
2022/03/20 01:52:48;;;;;;;20.47;7.00;;;;;;;-0.45;45.40;102252.19;5073718;28;20056;-80
2022/03/20 01:55:16;;;;;;;13.57;6.78;;;;;;;-0.47;45.33;102235.72;5072110;28;20040;-79
2022/03/20 01:57:44;;;;;;;14.57;6.60;;;;;;;-0.64;45.53;102203.47;5073725;28;20048;-80
2022/03/20 02:00:14;;;;;;;16.50;6.97;;;;;;;-0.43;45.27;102239.44;5073349;28;20091;-80
2022/03/20 02:02:41;;;;;;;16.75;6.45;;;;;;;-0.60;45.59;102201.16;5074352;28;20060;-78
2022/03/20 02:05:10;;;;;;;15.13;6.50;;;;;;;-0.47;45.95;102238.31;5073447;28;20052;-80
2022/03/20 02:07:38;;;;;;;15.73;7.05;;;;;;;-0.67;45.89;102212.56;5073249;28;20505;-80
2022/03/20 02:10:06;;;;;;;14.27;6.13;;;;;;;-0.60;46.13;102214.91;5073089;28;20044;-79
2022/03/20 02:12:38;;;;;;;16.05;7.28;;;;;;;-0.47;46.39;102228.03;5073070;28;20064;-80
2022/03/20 02:15:09;;;;;;;18.52;7.55;;;;;;;-0.50;46.56;102227.75;5071511;28;20057;-79
2022/03/20 02:17:37;;;;;;;16.17;7.63;;;;;;;-1.10;46.30;102153.34;5073404;28;20056;-79
2022/03/20 02:20:08;;;;;;;14.18;6.22;;;;;;;-0.52;46.60;102220.69;5073206;28;20139;-80
2022/03/20 02:22:43;;;;;;;17.95;6.72;;;;;;;-0.63;46.65;102218.09;5073351;28;20059;-80
2022/03/20 02:25:14;;;;;;;20.23;7.25;;;;;;;-0.59;47.01;102218.38;5073344;28;20144;-79
2022/03/20 02:27:44;;;;;;;;;;;;;;;-0.66;46.43;102209.25;5073869;28;20063;-78
2022/03/20 02:30:15;;;;;;;19.05;6.95;;;;;;;-0.67;47.28;102203.22;5073660;28;19928;-79
2022/03/20 02:32:45;;;;;;;14.65;6.95;;;;;;;-0.54;47.38;102210.28;5072612;28;20044;-78
2022/03/20 02:35:14;;;;;;;13.88;6.75;;;;;;;-0.49;47.57;102218.41;5072989;28;20048;-79
2022/03/20 02:37:48;;;;;;;16.40;6.80;;;;;;;-0.54;47.88;102209.38;5073019;28;20052;-79
2022/03/20 02:40:17;;;;;;;17.55;7.18;;;;;;;-0.45;47.72;102225.59;5073673;28;20063;-79
2022/03/20 02:42:48;;;;;;;15.73;6.13;;;;;;;-0.43;47.73;102216.34;5073508;28;20502;-78
2022/03/20 02:45:20;;;;;;;17.00;7.05;;;;;;;-0.40;47.75;102208.00;5073619;28;20425;-80
2022/03/20 02:47:49;;;;;;;18.77;7.25;;;;;;;-0.44;48.40;102215.44;5087749;28;20044;-78
2022/03/20 02:50:24;;;;;;;13.70;6.63;;;;;;;-0.39;48.48;102204.66;5093414;28;20526;-78
2022/03/20 02:52:58;;;;;;;15.90;6.72;;;;;;;-0.43;48.68;102196.72;5084906;28;20052;-79
2022/03/20 02:55:34;;;;;;;12.68;6.10;;;;;;;-0.40;48.48;102214.03;5072736;28;20057;-80
2022/03/20 02:58:06;;;;;;;14.88;7.22;;;;;;;-0.36;48.62;102221.25;5072832;28;20052;-78
2022/03/20 03:00:34;;;;;;;17.23;6.72;;;;;;;-0.63;48.90;102160.72;5072718;28;20053;-80
2022/03/20 03:03:04;;;;;;;14.18;6.82;;;;;;;-0.39;49.19;102214.94;5072758;28;20151;-80
2022/03/20 03:05:32;;;;;;;18.95;7.45;;;;;;;-0.41;49.31;102201.94;5072641;28;20052;-79
2022/03/20 03:11:01;;;;;;;14.10;7.28;;;;;;;-0.32;49.46;102212.09;5072603;28;20127;-79
2022/03/20 03:13:40;;;;;;;19.40;7.85;;;;;;;-0.31;49.50;102201.06;5072896;28;20489;-80
2022/03/20 03:16:11;;;;;;;15.98;7.63;;;;;;;-0.35;49.43;102179.38;5072638;28;20099;-82
2022/03/20 03:18:41;;;;;;;19.10;7.90;;;;;;;-0.36;49.70;102181.81;5072197;28;20464;-79
2022/03/20 03:21:13;;;;;;;20.60;8.32;;;;;;;-0.29;50.08;102190.16;5072362;28;20056;-79
2022/03/20 03:23:41;;;;;;;17.23;7.85;;;;;;;-0.18;50.13;102200.44;5071604;28;20117;-79
2022/03/20 03:26:08;;;;;;;15.93;7.80;;;;;;;-0.26;49.84;102169.88;5072414;28;20109;-81
2022/03/20 03:28:36;;;;;;;17.15;9.07;;;;;;;-0.24;50.13;102168.34;5075643;28;20515;-79
2022/03/20 03:31:06;;;;;;;19.45;8.25;;;;;;;-0.10;50.55;102196.84;5078125;28;20054;-82
2022/03/20 03:33:36;;;;;;;18.67;7.43;;;;;;;-0.07;50.63;102197.09;5081758;28;20052;-80
2022/03/20 03:36:03;;;;;;;17.88;8.40;;;;;;;-0.05;50.86;102181.03;5092535;28;20109;-79
2022/03/20 03:38:35;;;;;;;16.75;7.05;;;;;;;-0.03;50.97;102188.88;5092603;28;20481;-79
2022/03/20 03:41:03;;;;;;;19.45;8.38;;;;;;;-0.65;51.03;102077.53;5092976;28;20116;-81
2022/03/20 03:43:30;;;;;;;17.02;8.70;;;;;;;0.08;50.87;102197.47;5094646;28;20060;-80
2022/03/20 03:45:58;;;;;;;15.60;7.35;;;;;;;0.16;51.13;102179.34;5096965;28;20076;-80
2022/03/20 03:48:25;;;;;;;16.10;7.80;;;;;;;0.24;51.41;102182.53;5096468;28;20432;-81
2022/03/20 03:50:53;;;;;;;23.52;9.77;;;;;;;0.35;51.09;102180.84;5096875;28;20052;-80
2022/03/20 03:53:20;;;;;;;18.65;8.50;;;;;;;0.34;51.63;102169.63;5097171;28;20062;-80
2022/03/20 03:55:47;;;;;;;21.45;7.78;;;;;;;0.45;51.22;102164.47;5096551;28;20052;-80
2022/03/20 03:58:14;;;;;;;21.83;8.65;;;;;;;0.59;51.16;102180.25;5095792;28;20052;-79
2022/03/20 04:00:43;;;;;;;18.05;8.07;;;;;;;0.64;51.86;102164.28;5095867;28;20056;-79
2022/03/20 04:03:11;;;;;;;19.92;8.00;;;;;;;0.75;51.02;102184.03;5094440;28;20056;-79
2022/03/20 04:05:39;;;;;;;19.27;8.60;;;;;;;0.80;51.57;102175.03;5096128;28;20059;-80
2022/03/20 04:08:07;;;;;;;18.23;7.97;;;;;;;0.86;51.20;102162.66;5095689;28;20070;-79
2022/03/20 04:10:34;;;;;;;18.65;8.65;;;;;;;0.99;51.20;102167.06;5094720;28;20543;-79
2022/03/20 04:13:01;;;;;;;18.85;8.25;;;;;;;0.85;50.90;102118.78;5095837;28;20147;-80
2022/03/20 04:15:28;;;;;;;20.10;8.52;;;;;;;0.93;50.74;102123.75;5095346;28;20084;-79
2022/03/20 04:17:58;;;;;;;17.70;8.02;;;;;;;1.23;51.16;102168.13;5095725;28;20058;-79
2022/03/20 04:20:25;;;;;;;18.70;9.10;;;;;;;1.29;51.20;102159.94;5095506;28;20135;-80
2022/03/20 04:25:40;;;;;;;22.42;9.07;;;;;;;1.52;51.03;102161.72;5096077;28;20060;-79
2022/03/20 04:28:07;;;;;;;21.63;9.00;;;;;;;1.42;50.74;102140.44;5096371;28;20048;-80
2022/03/20 04:30:35;;;;;;;18.25;8.70;;;;;;;1.45;50.48;102098.53;5095692;28;20058;-80
2022/03/20 04:33:02;;;;;;;17.17;8.48;;;;;;;1.97;50.36;102173.72;5094763;28;20060;-81
2022/03/20 04:35:30;;;;;;;22.02;9.73;;;;;;;2.07;50.17;102173.63;5095431;28;20109;-78
2022/03/20 04:38:02;;;;;;;19.95;10.02;;;;;;;2.21;50.22;102152.31;5094296;28;20052;-78
2022/03/20 04:40:29;;;;;;;21.98;9.55;;;;;;;2.28;49.84;102134.72;5095099;28;20067;-79
2022/03/20 04:42:56;;;;;;;17.20;8.55;;;;;;;2.44;49.55;102135.94;5095172;28;20044;-81
2022/03/20 04:45:24;;;;;;;20.45;8.60;;;;;;;2.51;49.28;102111.47;5095363;28;20501;-79
2022/03/20 04:58:53;;;;;;;20.48;9.80;;;;;;;3.59;47.70;102155.13;5094753;28;20056;-81
2022/03/20 05:01:20;;;;;;;19.77;9.73;;;;;;;3.54;47.64;102120.34;5096617;28;20052;-83
2022/03/20 05:03:51;;;;;;;22.20;9.40;;;;;;;3.71;48.04;102157.69;5094743;28;20052;-80
2022/03/20 05:06:18;;;;;;;21.05;9.75;;;;;;;3.75;47.54;102134.72;5095505;28;20052;-80
2022/03/20 05:08:46;;;;;;;21.67;10.10;;;;;;;3.92;47.29;102140.13;5094256;28;20184;-79
2022/03/20 05:14:00;;;;;;;22.02;10.32;;;;;;;4.20;46.90;102140.25;5095539;28;20059;-81
2022/03/20 05:16:26;;;;;;;20.38;10.15;;;;;;;4.06;46.74;102087.59;5096149;28;20055;-80
2022/03/20 05:18:53;;;;;;;23.25;10.25;;;;;;;4.30;46.74;102120.25;5097588;28;20068;-79
2022/03/20 05:21:20;;;;;;;21.45;9.73;;;;;;;4.37;46.64;102125.84;5116316;28;20062;-78
2022/03/20 05:23:50;;;;;;;25.45;10.82;;;;;;;4.52;46.48;102132.00;5063565;28;20060;-84
2022/03/20 05:26:17;;;;;;;21.17;10.18;;;;;;;4.61;46.20;102111.84;5076745;28;20098;-80
2022/03/20 05:28:44;;;;;;;20.50;10.38;;;;;;;4.61;46.29;102123.91;5074707;28;20075;-79
2022/03/20 05:31:11;;;;;;;22.63;10.48;;;;;;;4.60;45.71;102107.47;5074298;28;20060;-81
2022/03/20 05:33:38;;;;;;;24.02;11.02;;;;;;;4.66;46.19;102096.59;5074361;28;20052;-79
2022/03/20 05:36:05;;;;;;;21.92;10.70;;;;;;;4.73;45.52;102114.31;5076241;28;20549;-80
2022/03/20 05:38:32;;;;;;;21.05;10.55;;;;;;;4.79;45.86;102103.44;5074967;28;20052;-80
2022/03/20 05:43:45;;;;;;;25.75;10.63;;;;;;;4.60;45.77;102058.28;5075380;28;20469;-81
2022/03/20 05:46:12;;;;;;;22.20;10.73;;;;;;;4.86;45.89;102101.34;5074256;28;20079;-82
2022/03/20 05:48:38;;;;;;;21.70;11.10;;;;;;;4.79;45.60;102100.84;5074357;28;20051;-79
2022/03/20 05:51:07;;;;;;;21.40;11.15;;;;;;;4.80;45.83;102094.91;5073785;28;20067;-78
2022/03/20 05:53:34;;;;;;;26.00;11.77;;;;;;;4.86;45.73;102097.84;5073436;28;20048;-79
2022/03/20 05:58:51;;;;;;;23.08;10.93;;;;;;;4.93;45.67;102084.50;5054196;28;20057;-77
2022/03/20 06:01:20;;;;;;;25.73;11.50;;;;;;;5.01;46.42;102080.69;5073511;28;20075;-79
2022/03/20 06:03:47;;;;;;;25.40;11.45;;;;;;;5.04;46.11;102082.56;5073740;28;20048;-79
2022/03/20 06:06:13;;;;;;;23.25;10.95;;;;;;;5.09;45.60;102076.84;5073392;28;20425;-78
2022/03/20 06:08:40;;;;;;;24.60;11.20;;;;;;;5.20;46.04;102079.19;5072671;28;20105;-79
2022/03/20 06:11:07;;;;;;;22.48;10.82;;;;;;;5.26;45.89;102079.56;5074126;28;20098;-78
2022/03/20 06:13:35;;;;;;;23.17;11.30;;;;;;;5.31;45.67;102076.47;5072216;28;20062;-78
2022/03/20 06:16:02;;;;;;;21.10;10.90;;;;;;;5.37;46.06;102080.22;5073506;28;20048;-78
2022/03/20 06:18:29;;;;;;;22.17;11.18;;;;;;;5.44;46.24;102079.75;5073284;28;20052;-79
2022/03/20 06:20:57;;;;;;;24.83;11.68;;;;;;;5.58;45.88;102062.44;5073938;28;20065;-79
2022/03/20 06:23:24;;;;;;;23.25;10.77;;;;;;;5.58;45.89;102054.66;5073496;28;20052;-78
2022/03/20 06:25:52;;;;;;;22.70;11.27;;;;;;;5.68;45.58;102050.09;5072595;28;20044;-81
2022/03/20 06:28:22;;;;;;;18.63;10.80;;;;;;;5.51;46.23;102005.03;5082049;28;20055;-79
2022/03/20 06:30:50;;;;;;;21.42;10.35;;;;;;;5.83;45.49;102047.50;5072860;28;20410;-82
2022/03/20 06:33:17;;;;;;;21.58;11.18;;;;;;;5.98;45.51;102054.38;5074677;28;20088;-79
2022/03/20 06:35:44;;;;;;;23.25;11.52;;;;;;;6.00;45.40;102037.22;5076057;28;20057;-79
2022/03/20 06:38:14;;;;;;;25.50;11.45;;;;;;;6.00;45.63;102017.38;5074334;28;20060;-79
2022/03/20 06:44:05;;;;;;;21.35;10.52;;;;;;;5.95;45.50;101977.28;5073465;28;20066;-79
2022/03/20 06:46:37;;;;;;;22.23;11.25;;;;;;;6.06;45.75;101993.44;5072025;28;20059;-80
2022/03/20 06:49:06;;;;;;;21.48;11.82;;;;;;;6.14;45.38;101982.69;5073383;28;20080;-79
2022/03/20 06:51:36;;;;;;;30.77;15.15;;;;;;;6.50;45.25;102015.78;5072664;28;20048;-80
2022/03/20 06:54:03;;;;;;;;;;;;;;;6.39;45.79;102001.31;5073218;28;20053;-79
2022/03/20 06:56:30;;;;;;;21.83;10.27;;;;;;;6.44;46.10;101995.56;5072432;28;19924;-80
2022/03/20 06:59:00;;;;;;;19.30;10.15;;;;;;;6.39;46.17;102003.91;5073044;28;20040;-82
2022/03/20 07:01:28;;;;;;;24.08;10.95;;;;;;;6.30;45.84;101984.44;5078543;28;20065;-79
2022/03/20 07:03:56;;;;;;;24.88;11.00;;;;;;;6.66;45.86;102004.50;5092014;28;20052;-79
2022/03/20 07:06:29;;;;;;;22.38;11.07;;;;;;;6.45;45.79;101960.09;5092563;28;20498;-79
2022/03/20 07:08:59;;;;;;;21.15;10.10;;;;;;;6.73;45.46;102012.72;5085410;28;20044;-80
2022/03/20 07:11:32;;;;;;;20.65;10.57;;;;;;;6.70;45.66;102012.53;5079458;28;20048;-79
2022/03/20 07:14:01;;;;;;;21.45;10.73;;;;;;;6.70;45.87;102002.16;5072009;28;20061;-79
2022/03/20 07:16:30;;;;;;;18.38;10.10;;;;;;;6.74;45.74;101993.72;5072265;28;20052;-79
2022/03/20 07:18:58;;;;;;;21.70;10.88;;;;;;;6.87;45.49;102002.16;5073867;28;20060;-80
2022/03/20 07:21:25;;;;;;;21.45;10.88;;;;;;;6.97;45.55;101997.50;5076321;28;20053;-79
2022/03/20 07:23:54;;;;;;;15.48;8.93;;;;;;;6.99;45.44;101992.41;5075867;28;20060;-79
2022/03/20 07:29:36;;;;;;;22.38;11.07;;;;;;;7.03;45.64;101977.84;5076273;28;20061;-78
2022/03/20 07:32:19;;;;;;;17.30;8.73;;;;;;;6.26;46.03;101891.63;5050044;28;20109;-79
2022/03/20 07:34:47;;;;;;;17.48;8.57;;;;;;;6.84;46.05;101963.00;5074848;28;20102;-79
2022/03/20 07:37:18;;;;;;;15.57;8.07;;;;;;;6.94;46.35;101993.84;5075767;28;20079;-78
2022/03/20 07:39:48;;;;;;;16.35;8.35;;;;;;;6.90;46.03;101992.78;5074902;28;20426;-81
2022/03/20 07:42:17;;;;;;;17.83;7.90;;;;;;;6.85;46.07;101983.00;5076301;28;20060;-80
2022/03/20 07:45:28;;;;;;;16.25;7.97;;;;;;;6.73;46.07;101942.59;5076571;28;20102;-82
2022/03/20 07:47:55;;;;;;;18.40;8.48;;;;;;;6.83;45.92;101943.06;5055638;28;20063;-81
2022/03/20 07:50:22;;;;;;;13.70;7.32;;;;;;;7.09;46.02;101984.25;5096464;28;20028;-80
2022/03/20 07:52:50;;;;;;;16.40;8.07;;;;;;;6.76;45.25;101926.25;5099829;28;20049;-81
2022/03/20 07:55:17;;;;;;;16.23;7.53;;;;;;;6.98;45.33;101982.81;5083286;28;20413;-80
2022/03/20 07:57:44;;;;;;;17.10;9.38;;;;;;;6.88;45.47;101970.16;5076374;28;20056;-82
2022/03/20 08:00:12;;;;;;;15.07;7.90;;;;;;;6.73;46.28;101952.97;5075758;28;20064;-81
2022/03/20 08:02:39;;;;;;;16.05;7.57;;;;;;;6.67;46.33;101928.38;5075567;28;20052;-81
2022/03/20 08:05:07;;;;;;;17.00;8.18;;;;;;;6.83;46.10;101937.84;5075310;28;20044;-81
2022/03/20 08:07:38;;;;;;;13.93;7.22;;;;;;;6.88;45.83;101949.38;5075330;28;20048;-80
2022/03/20 08:10:09;;;;;;;16.15;7.30;;;;;;;6.78;46.08;101913.34;5076331;28;20075;-80
2022/03/20 08:12:37;;;;;;;14.95;7.57;;;;;;;6.68;45.64;101889.47;5084106;28;20059;-79
2022/03/20 08:15:09;;;;;;;15.40;7.78;;;;;;;6.89;45.55;101923.47;5081868;28;20512;-81
2022/03/20 08:17:44;;;;;;;18.55;8.70;;;;;;;7.04;45.70;101919.88;5084456;28;20048;-80
2022/03/20 08:20:14;;;;;;;18.20;9.43;;;;;;;6.97;45.24;101890.09;5081384;28;20202;-79
2022/03/20 08:22:42;;;;;;;16.98;7.43;;;;;;;7.23;45.28;101919.97;5084801;28;20075;-81
2022/03/20 08:25:11;;;;;;;17.50;7.82;;;;;;;7.33;44.85;101924.78;5091509;28;20055;-82
2022/03/20 08:27:45;;;;;;;17.48;8.20;;;;;;;7.22;44.68;101892.19;5096617;28;20055;-79
2022/03/20 08:30:17;;;;;;;15.20;9.02;;;;;;;7.43;44.80;101923.56;5096627;28;20056;-81
2022/03/20 08:32:47;;;;;;;20.58;9.90;;;;;;;7.59;44.98;101909.56;5097317;28;20052;-79
2022/03/20 08:35:15;;;;;;;20.45;9.43;;;;;;;7.68;44.38;101891.81;5073364;28;20052;-82
2022/03/20 08:37:49;;;;;;;21.15;9.43;;;;;;;7.77;43.96;101894.84;5074656;28;20520;-80
2022/03/20 08:40:17;;;;;;;20.95;10.50;;;;;;;7.77;43.70;101891.38;5075230;28;20053;-80
2022/03/20 08:42:53;;;;;;;20.33;10.98;;;;;;;7.74;44.15;101889.53;5075476;28;20056;-78
2022/03/20 08:45:29;;;;;;;25.75;11.63;;;;;;;7.80;44.05;101888.91;5074353;28;20490;-79
2022/03/20 08:47:56;;;;;;;20.58;10.68;;;;;;;7.79;44.16;101887.13;5075298;28;20052;-78
2022/03/20 08:50:24;;;;;;;17.30;9.23;;;;;;;7.77;43.86;101883.56;5059652;28;20051;-78
2022/03/20 08:52:56;;;;;;;19.33;9.77;;;;;;;7.49;44.21;101825.03;5085550;28;20072;-78
2022/03/20 08:55:24;;;;;;;18.38;9.38;;;;;;;7.86;43.26;101875.28;5081088;28;20050;-78
2022/03/20 08:57:52;;;;;;;21.40;10.80;;;;;;;7.98;43.53;101875.88;5083374;28;20055;-81
2022/03/20 09:00:22;;;;;;;17.45;8.98;;;;;;;7.94;43.77;101859.22;5086376;28;20441;-79
2022/03/20 09:02:55;;;;;;;18.45;9.98;;;;;;;7.95;43.23;101837.56;5068052;28;20102;-80
2022/03/20 09:05:22;;;;;;;18.05;9.07;;;;;;;8.15;43.38;101869.72;5077332;28;20048;-81
2022/03/20 09:08:14;;;;;;;20.00;8.32;;;;;;;8.07;42.83;101844.16;5079370;28;20467;-82
2022/03/20 09:10:49;;;;;;;19.95;10.52;;;;;;;8.04;43.11;101828.38;5082583;28;20113;-81
2022/03/20 09:13:20;;;;;;;19.77;9.65;;;;;;;8.23;42.86;101833.59;5085304;28;20060;-82
2022/03/20 09:19:00;;;;;;;21.83;10.38;;;;;;;8.21;42.87;101819.63;5095854;28;20067;-81
2022/03/20 09:21:29;;;;;;;14.95;8.80;;;;;;;8.34;42.42;101819.31;5099074;28;20110;-81
2022/03/20 09:23:57;;;;;;;23.27;10.23;;;;;;;8.54;42.25;101842.78;5076145;28;20063;-80
2022/03/20 09:26:24;;;;;;;20.25;8.65;;;;;;;8.57;41.92;101822.09;5074447;28;20052;-80
2022/03/20 09:28:51;;;;;;;15.50;8.02;;;;;;;8.80;41.71;101839.56;5073260;28;20497;-80
2022/03/20 09:31:19;;;;;;;15.27;8.30;;;;;;;8.79;41.91;101840.38;5073895;28;20056;-81
2022/03/20 09:33:47;;;;;;;15.52;7.80;;;;;;;8.72;41.31;101848.78;5072594;28;20130;-80
2022/03/20 09:36:14;;;;;;;17.98;8.00;;;;;;;8.71;41.16;101844.41;5072304;28;20056;-80
2022/03/20 09:38:41;;;;;;;17.20;8.07;;;;;;;8.81;41.31;101835.25;5071951;28;20072;-79
2022/03/20 09:41:11;;;;;;;13.95;7.93;;;;;;;8.72;41.02;101816.63;5073240;28;20049;-79
2022/03/20 09:43:40;;;;;;;13.45;8.07;;;;;;;8.67;40.56;101794.69;5073710;28;20053;-79
2022/03/20 09:46:15;;;;;;;22.85;8.10;;;;;;;8.92;40.35;101814.84;5073609;28;20057;-79
2022/03/20 09:48:43;;;;;;;19.70;7.88;;;;;;;8.96;40.03;101816.75;5073206;28;20139;-79
2022/03/20 09:51:10;;;;;;;20.38;10.43;;;;;;;8.98;40.59;101815.09;5073088;28;20053;-80
2022/03/20 09:53:37;;;;;;;17.33;8.02;;;;;;;8.79;39.75;101757.00;5073445;28;20580;-79
2022/03/20 09:56:10;;;;;;;18.30;8.82;;;;;;;8.89;39.88;101760.88;5073227;28;20066;-80
2022/03/20 09:58:36;;;;;;;15.95;8.32;;;;;;;9.20;39.80;101793.38;5071771;28;20063;-80
2022/03/20 10:01:03;;;;;;;19.23;9.18;;;;;;;9.27;38.76;101785.00;5079920;28;20056;-79
2022/03/20 10:03:31;;;;;;;14.38;6.72;;;;;;;9.26;38.52;101762.34;5072939;28;20048;-81
2022/03/20 10:06:09;;;;;;;13.57;6.70;;;;;;;9.40;38.30;101776.81;5073144;28;20064;-80
2022/03/20 10:08:37;;;;;;;14.65;6.53;;;;;;;9.00;38.23;101717.88;5073734;28;20147;-81
2022/03/20 10:11:17;;;;;;;12.27;7.00;;;;;;;9.43;37.24;101774.31;5072068;28;20521;-80
2022/03/20 10:14:08;;;;;;;16.20;7.28;;;;;;;9.49;37.71;101759.75;5079979;28;20162;-79
2022/03/20 10:16:36;;;;;;;13.55;7.70;;;;;;;9.48;37.05;101737.97;5091131;28;20052;-80
2022/03/20 10:19:23;;;;;;;13.30;7.00;;;;;;;9.60;36.49;101743.63;5095332;28;20060;-79
2022/03/20 10:22:01;;;;;;;13.90;6.72;;;;;;;9.41;36.15;101707.25;5107575;28;20028;-80
2022/03/20 10:24:30;;;;;;;13.57;6.00;;;;;;;9.75;36.08;101743.31;5115923;28;20094;-79
2022/03/20 10:27:00;;;;;;;17.37;8.33;;;;;;;9.83;35.72;101735.78;5100533;28;20056;-78
2022/03/20 10:29:29;;;;;;;23.13;6.13;;;;;;;9.46;34.64;101684.84;5094029;28;20416;-80
2022/03/20 10:32:08;;;;;;;19.98;9.43;;;;;;;9.82;34.48;101710.50;5093650;28;20068;-80
2022/03/20 10:34:50;;;;;;;19.23;9.02;;;;;;;9.91;33.44;101718.66;5093566;28;20060;-80
2022/03/20 10:37:18;;;;;;;13.00;6.28;;;;;;;9.67;34.01;101691.69;5093413;28;20097;-80
2022/03/20 10:39:45;;;;;;;11.90;5.25;;;;;;;9.63;34.21;101704.59;5091371;28;20044;-80
2022/03/20 10:42:15;;;;;;;14.15;5.65;;;;;;;9.73;34.04;101691.91;5093443;28;20398;-79
2022/03/20 10:44:42;;;;;;;14.52;5.40;;;;;;;9.64;32.81;101669.88;5075173;28;20429;-79
2022/03/20 10:47:16;;;;;;;12.90;6.28;;;;;;;9.75;32.78;101678.06;5093325;28;20527;-79
2022/03/20 10:50:00;;;;;;;18.38;8.40;;;;;;;9.87;33.10;101687.16;5092930;28;20098;-80
2022/03/20 10:52:32;;;;;;;16.55;6.55;;;;;;;9.94;32.63;101686.56;5093075;28;20052;-79
2022/03/20 10:55:06;;;;;;;11.85;5.90;;;;;;;9.97;32.79;101676.22;5097390;28;20048;-80
2022/03/20 10:57:34;;;;;;;14.85;5.95;;;;;;;10.05;32.56;101659.09;5096061;28;20048;-80
2022/03/20 11:00:08;;;;;;;15.10;7.80;;;;;;;9.95;32.31;101659.63;5097295;28;20089;-79
2022/03/20 11:02:37;;;;;;;15.32;7.25;;;;;;;10.06;32.19;101663.47;5087852;28;20049;-79
2022/03/20 11:05:08;;;;;;;19.20;7.13;;;;;;;9.97;32.56;101632.72;5083882;28;20060;-79
2022/03/20 11:07:36;;;;;;;20.73;8.82;;;;;;;10.15;31.66;101674.25;5074588;28;20471;-79
2022/03/20 11:10:11;;;;;;;10.55;5.25;;;;;;;10.05;31.16;101667.81;5078196;28;20056;-81
2022/03/20 11:12:42;;;;;;;14.48;5.57;;;;;;;10.04;30.83;101653.00;5086139;28;20416;-82
2022/03/20 11:15:09;;;;;;;9.43;4.63;;;;;;;10.05;31.30;101640.81;5089926;28;20509;-82
2022/03/20 11:17:46;;;;;;;;;;;;;;;9.97;32.35;101643.16;5059911;28;20052;-81
2022/03/20 11:20:18;;;;;;;9.82;4.85;;;;;;;10.11;30.57;101650.56;5095524;28;20356;-80
2022/03/20 11:22:50;;;;;;;12.50;5.35;;;;;;;10.19;30.60;101643.88;5096616;28;20432;-80
2022/03/20 11:25:21;;;;;;;19.70;9.15;;;;;;;10.24;30.53;101635.38;5096617;28;20138;-79
2022/03/20 11:28:01;;;;;;;16.85;8.35;;;;;;;10.14;30.38;101609.78;5090350;28;20091;-78
2022/03/20 11:30:30;;;;;;;12.27;5.75;;;;;;;10.25;30.33;101620.59;5096547;28;20087;-80
2022/03/20 11:33:00;;;;;;;7.33;4.17;;;;;;;10.27;30.03;101633.72;5080805;28;20055;-80
2022/03/20 11:35:31;;;;;;;10.20;5.22;;;;;;;10.29;30.42;101624.19;5075898;28;20285;-80
2022/03/20 11:38:24;;;;;;;10.73;4.63;;;;;;;10.30;29.92;101634.72;5074383;28;20057;-81
2022/03/20 11:41:17;;;;;;;12.23;5.53;;;;;;;10.23;29.99;101606.59;5055802;28;20052;-80
2022/03/20 11:44:04;;;;;;;6.95;3.60;;;;;;;10.47;29.57;101631.75;5081514;28;20079;-80
2022/03/20 11:46:34;;;;;;;10.35;4.03;;;;;;;10.39;29.68;101608.00;5054242;28;20053;-78
2022/03/20 11:49:17;;;;;;;8.07;3.35;;;;;;;10.45;29.00;101614.31;5054222;28;20059;-79
2022/03/20 11:52:13;;;;;;;11.98;3.88;;;;;;;10.38;29.99;101612.34;5055238;28;20098;-78
2022/03/20 11:54:40;;;;;;;7.53;3.47;;;;;;;10.49;29.54;101610.06;5070570;28;20490;-80
2022/03/20 11:57:26;;;;;;;5.47;2.88;;;;;;;10.54;28.33;101613.72;5055102;28;20057;-80
2022/03/20 12:00:14;;;;;;;11.02;2.70;;;;;;;10.50;27.58;101606.63;5055609;28;20059;-80
2022/03/20 12:03:20;;;;;;;6.97;3.40;;;;;;;10.52;28.00;101596.19;5054294;28;20218;-78
2022/03/20 12:06:26;;;;;;;6.57;2.42;;;;;;;10.55;28.12;101591.09;5055277;28;20048;-79
2022/03/20 12:13:19;;;;;;;6.88;2.05;;;;;;;10.36;27.76;101606.19;5030041;28;20056;-79
2022/03/20 12:15:46;;;;;;;12.50;4.00;;;;;;;10.36;28.42;101598.34;5055178;28;20045;-80
2022/03/20 12:18:13;;;;;;;11.27;4.10;;;;;;;10.36;29.00;101581.78;5053803;28;20144;-81